createdAt,value
2022-11-12T00:01:14.802Z,99747.31
2022-11-12T00:03:42.848Z,99752.94
2022-11-12T00:06:11.066Z,99760.91
2022-11-12T00:08:39.452Z,99758.41
2022-11-12T00:11:07.652Z,99756.50
2022-11-12T00:13:35.690Z,99762.25
2022-11-12T00:16:06.585Z,99752.91
2022-11-12T00:18:34.608Z,99755.78
2022-11-12T00:21:02.760Z,99757.44
2022-11-12T00:23:31.184Z,99759.41
2022-11-12T00:26:00.770Z,99756.47
2022-11-12T00:28:32.230Z,99758.44
2022-11-12T00:31:10.455Z,99747.69
2022-11-12T00:33:41.642Z,99756.56
2022-11-12T00:36:09.976Z,99754.31
2022-11-12T00:38:38.659Z,99753.72
2022-11-12T00:41:06.819Z,99746.91
2022-11-12T00:43:35.347Z,99744.00
2022-11-12T00:46:03.384Z,99741.84
2022-11-12T00:48:32.869Z,99748.63
2022-11-12T00:51:02.633Z,99747.81
2022-11-12T00:53:30.880Z,99743.44
2022-11-12T00:56:03.116Z,99748.63
2022-11-12T00:58:32.069Z,99746.91
2022-11-12T01:01:05.612Z,99749.56
2022-11-12T01:03:35.545Z,99751.47
2022-11-12T01:06:04.758Z,99754.16
2022-11-12T01:08:33.105Z,99745.13
2022-11-12T01:11:07.610Z,99753.78
2022-11-12T01:13:38.788Z,99743.72
2022-11-12T01:16:11.250Z,99748.56
2022-11-12T01:18:40.997Z,99752.06
2022-11-12T01:21:09.814Z,99749.91
2022-11-12T01:23:40.249Z,99752.41
2022-11-12T01:26:09.765Z,99749.59
2022-11-12T01:28:38.861Z,99747.75
2022-11-12T01:31:14.912Z,99745.13
2022-11-12T01:33:45.666Z,99749.47
2022-11-12T01:36:14.700Z,99740.34
2022-11-12T01:38:44.453Z,99739.59
2022-11-12T01:41:15.005Z,99744.63
2022-11-12T01:43:43.692Z,99754.19
2022-11-12T01:46:16.372Z,99761.97
2022-11-12T01:48:49.695Z,99759.56
2022-11-12T01:51:18.245Z,99750.38
2022-11-12T01:53:49.090Z,99753.56
2022-11-12T01:56:17.814Z,99755.22
2022-11-12T01:58:48.205Z,99760.53
2022-11-12T02:01:17.106Z,99761.56
2022-11-12T02:03:45.401Z,99757.50
2022-11-12T02:06:16.132Z,99756.75
2022-11-12T02:08:45.578Z,99749.41
2022-11-12T02:11:15.567Z,99754.97
2022-11-12T02:13:58.454Z,99751.44
2022-11-12T02:16:29.666Z,99752.53
2022-11-12T02:18:57.991Z,99754.78
2022-11-12T02:21:28.320Z,99746.41
2022-11-12T02:24:04.357Z,99751.72
2022-11-12T02:26:35.793Z,99756.16
2022-11-12T02:29:05.192Z,99756.09
2022-11-12T02:31:33.395Z,99752.44
2022-11-12T02:34:02.341Z,99750.41
2022-11-12T02:36:32.395Z,99752.03
2022-11-12T02:39:00.670Z,99759.91
2022-11-12T02:41:29.272Z,99762.88
2022-11-12T02:43:57.637Z,99758.84
2022-11-12T02:46:26.432Z,99759.31
2022-11-12T02:48:55.139Z,99761.69
2022-11-12T02:51:23.707Z,99754.69
2022-11-12T02:53:53.790Z,99753.84
2022-11-12T02:56:22.090Z,99752.56
2022-11-12T02:58:50.499Z,99759.44
2022-11-12T03:01:18.624Z,99751.69
2022-11-12T03:03:46.760Z,99753.00
2022-11-12T03:06:15.381Z,99759.31
2022-11-12T03:08:43.508Z,99756.22
2022-11-12T03:11:14.907Z,99770.69
2022-11-12T03:13:43.622Z,99762.00
2022-11-12T03:16:11.839Z,99757.13
2022-11-12T03:18:39.987Z,99757.84
2022-11-12T03:21:08.500Z,99757.72
2022-11-12T03:23:36.642Z,99747.03
2022-11-12T03:26:05.563Z,99750.75
2022-11-12T03:28:35.227Z,99752.91
2022-11-12T03:31:03.609Z,99762.22
2022-11-12T03:33:31.879Z,99749.06
2022-11-12T03:36:00.014Z,99743.59
2022-11-12T03:38:28.510Z,99748.22
2022-11-12T03:40:56.836Z,99749.31
2022-11-12T03:43:25.207Z,99753.22
2022-11-12T03:45:54.782Z,99750.66
2022-11-12T03:48:22.911Z,99750.84
2022-11-12T03:50:51.389Z,99743.59
2022-11-12T03:53:19.570Z,99741.59
2022-11-12T03:55:48.017Z,99742.88
2022-11-12T03:58:16.141Z,99741.78
2022-11-12T04:00:44.409Z,99736.81
2022-11-12T04:03:14.111Z,99740.41
2022-11-12T04:05:59.961Z,99736.91
2022-11-12T04:08:37.100Z,99736.78
2022-11-12T04:11:08.347Z,99735.63
2022-11-12T04:13:38.748Z,99745.03
2022-11-12T04:16:27.188Z,99732.81
2022-11-12T04:19:16.158Z,99748.22
2022-11-12T04:21:54.987Z,99745.75
2022-11-12T04:24:43.879Z,99741.47
2022-11-12T04:27:14.731Z,99731.28
2022-11-12T04:30:01.101Z,99723.88
2022-11-12T04:32:29.657Z,99734.56
2022-11-12T04:35:00.073Z,99734.34
2022-11-12T04:37:29.594Z,99731.09
2022-11-12T04:40:18.976Z,99738.75
2022-11-12T04:43:06.773Z,99731.47
2022-11-12T04:45:42.161Z,99732.16
2022-11-12T04:48:10.659Z,99734.75
2022-11-12T04:50:40.331Z,99738.50
2022-11-12T04:53:08.453Z,99728.00
2022-11-12T04:55:36.829Z,99725.88
2022-11-12T04:58:05.467Z,99731.81
2022-11-12T05:00:33.570Z,99733.00
2022-11-12T05:03:02.008Z,99733.59
2022-11-12T05:05:33.896Z,99734.88
2022-11-12T05:08:04.414Z,99731.25
2022-11-12T05:10:32.862Z,99723.28
2022-11-12T05:13:01.071Z,99734.88
2022-11-12T05:15:29.577Z,99727.41
2022-11-12T05:17:57.886Z,99730.16
2022-11-12T05:20:26.237Z,99723.97
2022-11-12T05:23:06.242Z,99729.25
2022-11-12T05:25:37.416Z,99725.66
2022-11-12T05:28:07.271Z,99731.84
2022-11-12T05:30:36.886Z,99736.16
2022-11-12T05:33:05.441Z,99739.81
2022-11-12T05:35:33.651Z,99728.31
2022-11-12T05:38:01.645Z,99725.09
2022-11-12T05:40:30.028Z,99730.31
2022-11-12T05:42:59.484Z,99735.38
2022-11-12T05:45:27.752Z,99740.03
2022-11-12T05:47:56.294Z,99740.38
2022-11-12T05:50:24.887Z,99742.63
2022-11-12T05:52:53.349Z,99742.88
2022-11-12T05:55:21.417Z,99748.81
2022-11-12T05:57:49.519Z,99747.38
2022-11-12T06:00:19.999Z,99754.94
2022-11-12T06:02:48.149Z,99752.94
2022-11-12T06:05:16.353Z,99750.81
2022-11-12T06:07:44.678Z,99757.34
2022-11-12T06:10:16.114Z,99763.69
2022-11-12T06:12:48.783Z,99766.19
2022-11-12T06:15:16.973Z,99769.91
2022-11-12T06:17:46.773Z,99771.03
2022-11-12T06:20:15.026Z,99765.78
2022-11-12T06:22:43.354Z,99775.56
2022-11-12T06:25:11.419Z,99778.78
2022-11-12T06:27:39.507Z,99775.81
2022-11-12T06:30:08.906Z,99783.78
2022-11-12T06:32:37.262Z,99777.47
2022-11-12T06:35:08.238Z,99775.44
2022-11-12T06:37:36.506Z,99783.13
2022-11-12T06:40:04.993Z,99777.13
2022-11-12T06:42:33.405Z,99778.09
2022-11-12T06:45:01.686Z,99769.22
2022-11-12T06:47:29.840Z,99781.38
2022-11-12T06:49:58.186Z,99778.78
2022-11-12T06:52:30.633Z,99773.16
2022-11-12T06:54:58.914Z,99778.81
2022-11-12T06:57:27.022Z,99786.88
2022-11-12T06:59:55.097Z,99786.53
2022-11-12T07:02:23.458Z,99792.75
2022-11-12T07:04:51.551Z,99792.41
2022-11-12T07:07:19.650Z,99786.59
2022-11-12T07:09:49.332Z,99793.84
2022-11-12T07:12:17.348Z,99796.72
2022-11-12T07:14:46.723Z,99791.31
2022-11-12T07:17:14.986Z,99784.09
2022-11-12T07:19:43.057Z,99784.56
2022-11-12T07:22:11.371Z,99782.13
2022-11-12T07:24:39.456Z,99778.00
2022-11-12T07:27:09.071Z,99780.66
2022-11-12T07:29:47.376Z,99784.34
2022-11-12T07:32:16.609Z,99775.91
2022-11-12T07:34:44.759Z,99772.06
2022-11-12T07:37:13.210Z,99775.97
2022-11-12T07:39:41.331Z,99783.63
2022-11-12T07:42:11.142Z,99779.41
2022-11-12T07:44:39.195Z,99778.47
2022-11-12T07:47:07.305Z,99777.81
2022-11-12T07:49:35.676Z,99770.28
2022-11-12T07:52:03.771Z,99780.13
2022-11-12T07:54:32.186Z,99785.06
2022-11-12T07:57:01.498Z,99786.47
2022-11-12T07:59:33.802Z,99797.94
2022-11-12T08:02:02.061Z,99790.59
2022-11-12T08:04:30.578Z,99788.50
2022-11-12T08:06:58.709Z,99778.88
2022-11-12T08:09:26.812Z,99777.56
2022-11-12T08:11:55.316Z,99783.53
2022-11-12T08:14:24.814Z,99780.53
2022-11-12T08:16:54.413Z,99784.47
2022-11-12T08:19:22.422Z,99790.59
2022-11-12T08:21:50.778Z,99791.34
2022-11-12T08:24:18.714Z,99797.81
2022-11-12T08:26:47.090Z,99800.13
2022-11-12T08:29:15.068Z,99792.75
2022-11-12T08:31:43.388Z,99797.28
2022-11-12T08:34:20.088Z,99800.59
2022-11-12T08:36:51.145Z,99795.47
2022-11-12T08:39:19.288Z,99796.88
2022-11-12T08:41:47.617Z,99786.81
2022-11-12T08:44:15.697Z,99794.09
2022-11-12T08:46:44.081Z,99796.06
2022-11-12T08:49:13.414Z,99802.06
2022-11-12T08:51:41.721Z,99794.41
2022-11-12T08:54:09.782Z,99788.22
2022-11-12T08:56:38.296Z,99800.22
2022-11-12T08:59:07.600Z,99786.84
2022-11-12T09:01:36.240Z,99792.97
2022-11-12T09:04:04.636Z,99795.72
2022-11-12T09:06:34.531Z,99796.41
2022-11-12T09:09:02.698Z,99803.78
2022-11-12T09:11:31.060Z,99801.34
2022-11-12T09:13:59.246Z,99800.78
2022-11-12T09:16:27.733Z,99790.25
2022-11-12T09:18:55.762Z,99803.66
2022-11-12T09:21:24.975Z,99790.97
2022-11-12T09:23:54.436Z,99786.09
2022-11-12T09:26:22.735Z,99784.47
2022-11-12T09:28:52.446Z,99785.31
2022-11-12T09:31:21.208Z,99783.56
2022-11-12T09:33:49.287Z,99788.09
2022-11-12T09:36:18.272Z,99777.38
2022-11-12T09:38:46.369Z,99784.16
2022-11-12T09:41:24.157Z,99789.59
2022-11-12T09:43:53.155Z,99781.56
2022-11-12T09:46:35.365Z,99788.94
2022-11-12T09:49:08.028Z,99786.41
2022-11-12T09:51:39.176Z,99780.00
2022-11-12T09:54:15.039Z,99783.19
2022-11-12T09:56:45.002Z,99789.09
2022-11-12T09:59:13.833Z,99781.31
2022-11-12T10:01:49.404Z,99780.41
2022-11-12T10:04:55.041Z,99776.41
2022-11-12T10:07:33.388Z,99781.69
2022-11-12T10:10:04.991Z,99777.91
2022-11-12T10:12:44.648Z,99769.75
2022-11-12T10:15:53.684Z,99778.66
2022-11-12T10:18:31.205Z,99789.41
2022-11-12T10:21:03.232Z,99779.97
2022-11-12T10:23:38.383Z,99772.88
2022-11-12T10:26:12.474Z,99767.50
2022-11-12T10:28:46.880Z,99771.06
2022-11-12T10:31:16.761Z,99768.66
2022-11-12T10:33:45.298Z,99764.81
2022-11-12T10:36:22.109Z,99763.63
2022-11-12T10:38:53.621Z,99770.06
2022-11-12T10:41:26.955Z,99764.56
2022-11-12T10:43:59.150Z,99762.22
2022-11-12T10:46:29.055Z,99761.75
2022-11-12T10:49:00.245Z,99759.94
2022-11-12T10:51:31.453Z,99761.91
2022-11-12T10:53:59.985Z,99762.00
2022-11-12T10:56:30.222Z,99756.16
2022-11-12T10:59:16.532Z,99771.78
2022-11-12T11:01:46.258Z,99763.28
2022-11-12T11:04:29.550Z,99770.03
2022-11-12T11:07:06.608Z,99772.53
2022-11-12T11:09:35.558Z,99776.53
2022-11-12T11:12:03.735Z,99766.66
2022-11-12T11:14:35.128Z,99769.19
2022-11-12T11:17:08.718Z,99757.34
2022-11-12T11:19:39.286Z,99761.53
2022-11-12T11:22:25.063Z,99755.44
2022-11-12T11:25:02.662Z,99765.47
2022-11-12T11:27:34.219Z,99764.06
2022-11-12T11:30:10.352Z,99755.81
2022-11-12T11:33:05.383Z,99760.81
2022-11-12T11:35:46.864Z,99759.19
2022-11-12T11:38:29.689Z,99739.31
2022-11-12T11:41:08.120Z,99748.47
2022-11-12T11:43:48.232Z,99748.69
2022-11-12T11:46:29.233Z,99743.88
2022-11-12T11:49:09.076Z,99746.69
2022-11-12T11:51:48.137Z,99737.78
2022-11-12T11:54:33.159Z,99738.75
2022-11-12T11:57:04.072Z,99731.66
2022-11-12T11:59:42.129Z,99739.00
2022-11-12T12:02:44.214Z,99743.31
2022-11-12T12:05:23.975Z,99742.16
2022-11-12T12:07:57.353Z,99736.47
2022-11-12T12:10:46.228Z,99737.38
2022-11-12T12:13:20.526Z,99733.28
2022-11-12T12:15:59.572Z,99733.59
2022-11-12T12:18:35.585Z,99734.88
2022-11-12T12:21:07.800Z,99738.41
2022-11-12T12:23:41.109Z,99736.06
2022-11-12T12:26:23.380Z,99729.16
2022-11-12T12:28:55.186Z,99732.72
2022-11-12T12:31:26.547Z,99732.94
2022-11-12T12:33:59.484Z,99731.03
2022-11-12T12:36:33.004Z,99729.19
2022-11-12T12:39:10.147Z,99730.16
2022-11-12T12:41:44.450Z,99721.69
2022-11-12T12:44:13.056Z,99720.25
2022-11-12T12:46:44.565Z,99719.88
2022-11-12T12:49:16.969Z,99723.59
2022-11-12T12:51:45.523Z,99711.31
2022-11-12T12:55:01.742Z,99721.31
2022-11-12T12:57:32.120Z,99710.69
2022-11-12T13:00:29.773Z,99715.66
2022-11-12T13:02:58.399Z,99706.69
2022-11-12T13:05:30.830Z,99706.00
2022-11-12T13:08:02.246Z,99700.44
2022-11-12T13:10:48.126Z,99696.31
2022-11-12T13:13:32.723Z,99707.22
2022-11-12T13:16:02.406Z,99702.06
2022-11-12T13:19:02.113Z,99705.06
2022-11-12T13:21:31.841Z,99705.16
2022-11-12T13:24:08.899Z,99703.78
2022-11-12T13:26:57.469Z,99699.09
2022-11-12T13:29:41.283Z,99699.38
2022-11-12T13:32:32.414Z,99698.75
2022-11-12T13:35:21.687Z,99708.38
2022-11-12T13:37:53.237Z,99703.88
2022-11-12T13:40:32.090Z,99714.75
2022-11-12T13:43:06.326Z,99710.28
2022-11-12T13:45:41.250Z,99710.50
2022-11-12T13:48:10.432Z,99711.09
2022-11-12T13:50:40.604Z,99711.56
2022-11-12T13:53:12.501Z,99719.19
2022-11-12T13:55:49.453Z,99716.84
2022-11-12T13:58:21.160Z,99710.13
2022-11-12T14:00:54.122Z,99705.72
2022-11-12T14:03:22.540Z,99705.66
2022-11-12T14:05:51.482Z,99707.28
2022-11-12T14:08:57.238Z,99702.03
2022-11-12T14:11:50.108Z,99695.91
2022-11-12T14:14:26.959Z,99694.69
2022-11-12T14:17:03.869Z,99700.25
2022-11-12T14:19:51.527Z,99693.03
2022-11-12T14:22:21.539Z,99694.59
2022-11-12T14:24:55.830Z,99697.28
2022-11-12T14:27:25.832Z,99697.53
2022-11-12T14:30:07.261Z,99697.59
2022-11-12T14:32:38.897Z,99695.75
2022-11-12T14:35:33.158Z,99695.78
2022-11-12T14:38:07.122Z,99688.59
2022-11-12T14:40:39.297Z,99687.94
2022-11-12T14:43:07.965Z,99697.91
2022-11-12T14:45:36.065Z,99682.66
2022-11-12T14:48:04.604Z,99686.72
2022-11-12T14:50:40.215Z,99693.78
2022-11-12T14:53:13.594Z,99691.81
2022-11-12T14:55:45.550Z,99692.09
2022-11-12T14:58:14.933Z,99684.53
2022-11-12T15:00:44.913Z,99689.53
2022-11-12T15:03:16.413Z,99691.19
2022-11-12T15:05:55.751Z,99693.94
2022-11-12T15:08:32.203Z,99691.81
2022-11-12T15:13:56.434Z,99689.78
2022-11-12T15:16:27.082Z,99690.97
2022-11-12T15:19:30.397Z,99695.81
2022-11-12T15:22:01.318Z,99690.16
2022-11-12T15:24:32.183Z,99688.78
2022-11-12T15:27:02.017Z,99690.78
2022-11-12T15:29:33.313Z,99689.09
2022-11-12T15:32:03.076Z,99697.44
2022-11-12T15:34:34.644Z,99692.16
2022-11-12T15:37:06.465Z,99696.91
2022-11-12T15:39:40.562Z,99695.53
2022-11-12T15:42:16.657Z,99693.34
2022-11-12T15:44:47.039Z,99699.44
2022-11-12T15:47:21.849Z,99700.53
2022-11-12T15:49:51.220Z,99694.53
2022-11-12T15:52:19.899Z,99698.91
2022-11-12T15:54:48.089Z,99703.88
2022-11-12T15:57:18.735Z,99702.78
2022-11-12T15:59:50.543Z,99693.13
2022-11-12T16:02:18.905Z,99697.84
2022-11-12T16:04:46.976Z,99719.03
2022-11-12T16:07:15.060Z,99721.22
2022-11-12T16:09:43.501Z,99721.47
2022-11-12T16:12:12.363Z,99723.06
2022-11-12T16:14:40.966Z,99721.66
2022-11-12T16:17:14.992Z,99721.97
2022-11-12T16:19:43.486Z,99728.72
2022-11-12T16:22:13.638Z,99721.84
2022-11-12T16:24:42.900Z,99730.94
2022-11-12T16:27:13.116Z,99729.38
2022-11-12T16:29:41.828Z,99724.25
2022-11-12T16:32:15.415Z,99725.78
2022-11-12T16:34:43.796Z,99723.84
2022-11-12T16:37:13.382Z,99717.91
2022-11-12T16:39:41.941Z,99713.34
2022-11-12T16:42:11.303Z,99724.69
2022-11-12T16:44:39.392Z,99718.78
2022-11-12T16:47:07.723Z,99719.31
2022-11-12T16:49:38.821Z,99721.75
2022-11-12T16:52:07.610Z,99726.22
2022-11-12T16:54:35.664Z,99735.81
2022-11-12T16:57:04.476Z,99730.25
2022-11-12T16:59:32.619Z,99726.88
2022-11-12T17:02:00.697Z,99736.16
2022-11-12T17:04:29.092Z,99740.94
2022-11-12T17:06:58.710Z,99734.31
2022-11-12T17:09:27.604Z,99737.44
2022-11-12T17:11:56.158Z,99740.38
2022-11-12T17:14:28.404Z,99743.84
2022-11-12T17:16:57.036Z,99748.41
2022-11-12T17:19:25.141Z,99743.94
2022-11-12T17:21:53.433Z,99746.19
2022-11-12T17:24:24.971Z,99743.28
2022-11-12T17:26:52.981Z,99744.59
2022-11-12T17:29:21.146Z,99747.91
2022-11-12T17:31:50.237Z,99752.50
2022-11-12T17:34:18.562Z,99743.38
2022-11-12T17:36:46.902Z,99740.16
2022-11-12T17:39:15.291Z,99742.34
2022-11-12T17:41:44.875Z,99729.28
2022-11-12T17:44:16.760Z,99741.78
2022-11-12T17:46:45.065Z,99739.91
2022-11-12T17:49:14.122Z,99745.13
2022-11-12T17:51:42.406Z,99749.78
2022-11-12T17:54:10.486Z,99742.28
2022-11-12T17:56:38.958Z,99753.09
2022-11-12T17:59:08.502Z,99750.63
2022-11-12T18:01:37.149Z,99747.50
2022-11-12T18:04:05.535Z,99750.13
2022-11-12T18:06:35.301Z,99742.34
2022-11-12T18:09:05.751Z,99751.13
2022-11-12T18:11:42.223Z,99746.22
2022-11-12T18:14:14.348Z,99737.44
2022-11-12T18:16:42.868Z,99738.91
2022-11-12T18:19:12.679Z,99739.91
2022-11-12T18:21:41.543Z,99732.47
2022-11-12T18:24:15.052Z,99741.22
2022-11-12T18:26:44.514Z,99740.94
2022-11-12T18:29:14.281Z,99736.19
2022-11-12T18:31:43.627Z,99739.22
2022-11-12T18:34:12.295Z,99733.31
2022-11-12T18:36:40.674Z,99745.44
2022-11-12T18:39:08.911Z,99751.31
2022-11-12T18:41:37.044Z,99749.13
2022-11-12T18:44:05.860Z,99751.75
2022-11-12T18:46:35.580Z,99756.78
2022-11-12T18:49:04.078Z,99748.31
2022-11-12T18:51:32.240Z,99756.22
2022-11-12T18:54:00.919Z,99743.03
2022-11-12T18:56:29.344Z,99759.53
2022-11-12T18:58:57.446Z,99770.72
2022-11-12T19:01:26.400Z,99760.78
2022-11-12T19:03:57.599Z,99762.81
2022-11-12T19:06:27.161Z,99770.19
2022-11-12T19:09:00.046Z,99771.22
2022-11-12T19:11:28.446Z,99780.44
2022-11-12T19:13:57.239Z,99785.63
2022-11-12T19:16:25.335Z,99777.13
2022-11-12T19:18:53.734Z,99786.22
2022-11-12T19:21:25.297Z,99777.59
2022-11-12T19:23:54.995Z,99791.72
2022-11-12T19:26:24.305Z,99793.63
2022-11-12T19:28:52.355Z,99794.28
2022-11-12T19:31:22.368Z,99794.41
2022-11-12T19:33:50.828Z,99782.00
2022-11-12T19:36:22.163Z,99801.66
2022-11-12T19:38:56.859Z,99805.34
2022-11-12T19:41:25.718Z,99804.66
2022-11-12T19:43:54.370Z,99798.22
2022-11-12T19:46:22.589Z,99802.63
2022-11-12T19:48:51.223Z,99802.66
2022-11-12T19:51:19.583Z,99806.22
2022-11-12T19:53:47.691Z,99802.31
2022-11-12T19:56:18.985Z,99804.38
2022-11-12T19:58:48.273Z,99806.16
2022-11-12T20:01:18.454Z,99796.81
2022-11-12T20:03:47.173Z,99791.59
2022-11-12T20:06:16.932Z,99790.41
2022-11-12T20:08:45.419Z,99789.94
2022-11-12T20:11:15.597Z,99800.75
2022-11-12T20:13:45.047Z,99798.25
2022-11-12T20:16:18.480Z,99802.31
2022-11-12T20:18:53.724Z,99807.16
2022-11-12T20:21:22.119Z,99806.34
2022-11-12T20:23:50.420Z,99807.59
2022-11-12T20:26:18.564Z,99814.41
2022-11-12T20:28:48.578Z,99803.38
2022-11-12T20:31:20.715Z,99804.91
2022-11-12T20:33:50.271Z,99806.66
2022-11-12T20:36:20.751Z,99820.47
2022-11-12T20:38:50.289Z,99815.00
2022-11-12T20:41:20.165Z,99804.50
2022-11-12T20:43:53.477Z,99805.44
2022-11-12T20:46:22.034Z,99803.94
2022-11-12T20:48:50.183Z,99810.56
2022-11-12T20:51:24.982Z,99806.94
2022-11-12T20:53:59.287Z,99811.94
2022-11-12T20:56:30.141Z,99811.09
2022-11-12T20:59:00.541Z,99816.22
2022-11-12T21:01:29.991Z,99815.16
2022-11-12T21:03:58.191Z,99825.31
2022-11-12T21:06:28.153Z,99823.63
2022-11-12T21:08:59.247Z,99823.50
2022-11-12T21:11:27.811Z,99826.38
2022-11-12T21:13:56.063Z,99824.47
2022-11-12T21:16:25.620Z,99821.25
2022-11-12T21:18:54.350Z,99825.00
2022-11-12T21:21:23.051Z,99825.09
2022-11-12T21:23:51.527Z,99820.22
2022-11-12T21:26:21.525Z,99815.78
2022-11-12T21:28:51.163Z,99819.22
2022-11-12T21:31:21.299Z,99821.63
2022-11-12T21:33:55.010Z,99817.19
2022-11-12T21:36:23.911Z,99819.53
2022-11-12T21:38:51.906Z,99821.78
2022-11-12T21:41:21.609Z,99816.16
2022-11-12T21:43:50.548Z,99820.34
2022-11-12T21:46:20.984Z,99815.22
2022-11-12T21:48:54.774Z,99812.94
2022-11-12T21:51:26.787Z,99812.19
2022-11-12T21:53:56.468Z,99820.78
2022-11-12T21:56:25.175Z,99815.19
2022-11-12T21:58:53.954Z,99815.44
2022-11-12T22:01:25.328Z,99812.81
2022-11-12T22:03:54.799Z,99816.91
2022-11-12T22:06:26.028Z,99808.91
2022-11-12T22:08:55.008Z,99806.66
2022-11-12T22:11:23.206Z,99801.34
2022-11-12T22:13:51.668Z,99804.97
2022-11-12T22:16:21.086Z,99816.63
2022-11-12T22:18:50.692Z,99805.88
2022-11-12T22:21:21.085Z,99797.31
2022-11-12T22:23:50.709Z,99798.91
2022-11-12T22:26:21.981Z,99808.34
2022-11-12T22:28:50.171Z,99802.41
2022-11-12T22:31:19.758Z,99806.69
2022-11-12T22:33:48.600Z,99797.19
2022-11-12T22:36:18.483Z,99798.94
2022-11-12T22:38:47.630Z,99797.19
2022-11-12T22:41:19.088Z,99800.97
2022-11-12T22:43:48.496Z,99795.41
2022-11-12T22:46:18.401Z,99796.00
2022-11-12T22:48:46.461Z,99804.19
2022-11-12T22:51:16.121Z,99801.47
2022-11-12T22:53:44.504Z,99799.31
2022-11-12T22:56:15.192Z,99800.88
2022-11-12T22:58:46.257Z,99804.78
2022-11-12T23:01:20.114Z,99804.31
2022-11-12T23:03:48.918Z,99792.34
2022-11-12T23:06:17.429Z,99793.53
2022-11-12T23:08:45.939Z,99796.59
2022-11-12T23:11:16.593Z,99782.56
2022-11-12T23:13:46.506Z,99791.38
2022-11-12T23:16:16.786Z,99788.00
2022-11-12T23:18:45.216Z,99780.91
2022-11-12T23:21:15.525Z,99783.81
2022-11-12T23:23:44.470Z,99794.09
2022-11-12T23:26:14.793Z,99791.97
2022-11-12T23:28:43.116Z,99786.38
2022-11-12T23:31:14.460Z,99790.91
2022-11-12T23:33:45.496Z,99787.31
2022-11-12T23:36:14.140Z,99794.81
2022-11-12T23:38:42.935Z,99790.78
2022-11-12T23:41:12.456Z,99789.44
2022-11-12T23:43:40.680Z,99784.84
2022-11-12T23:46:08.836Z,99787.91
2022-11-12T23:48:38.763Z,99785.25
2022-11-12T23:51:08.640Z,99784.91
2022-11-12T23:53:37.354Z,99777.31
2022-11-12T23:56:07.034Z,99786.34
2022-11-12T23:58:35.084Z,99791.38
